createdAt,value
2018-07-27T00:00:14.253Z,857.18
2018-07-27T00:01:14.127Z,857.16
2018-07-27T00:02:14.007Z,857.16
2018-07-27T00:03:13.886Z,857.15
2018-07-27T00:04:13.762Z,857.15
2018-07-27T00:05:13.642Z,857.17
2018-07-27T00:06:13.516Z,857.16
2018-07-27T00:07:13.396Z,857.13
2018-07-27T00:08:13.273Z,857.17
2018-07-27T00:09:13.157Z,857.17
2018-07-27T00:10:13.031Z,857.16
2018-07-27T00:11:12.927Z,857.15
2018-07-27T00:12:12.790Z,857.17
2018-07-27T00:13:12.665Z,857.18
2018-07-27T00:14:12.547Z,857.17
2018-07-27T00:15:12.421Z,857.19
2018-07-27T00:16:12.302Z,857.22
2018-07-27T00:17:12.180Z,857.19
2018-07-27T00:18:12.057Z,857.19
2018-07-27T00:19:11.936Z,857.22
2018-07-27T00:20:11.814Z,857.22
2018-07-27T00:21:11.692Z,857.20
2018-07-27T00:22:11.598Z,857.20
2018-07-27T00:23:11.449Z,857.14
2018-07-27T00:24:11.328Z,857.16
2018-07-27T00:25:11.206Z,857.17
2018-07-27T00:26:11.083Z,857.17
2018-07-27T00:27:10.962Z,857.13
2018-07-27T00:28:10.839Z,857.10
2018-07-27T00:29:10.719Z,857.13
2018-07-27T00:30:10.595Z,857.11
2018-07-27T00:31:10.475Z,857.11
2018-07-27T00:32:10.352Z,857.10
2018-07-27T00:33:10.252Z,857.12
2018-07-27T00:34:10.108Z,857.10
2018-07-27T00:35:09.986Z,857.12
2018-07-27T00:36:09.871Z,857.09
2018-07-27T00:37:09.744Z,857.13
2018-07-27T00:38:09.621Z,857.13
2018-07-27T00:39:09.502Z,857.17
2018-07-27T00:40:09.376Z,857.14
2018-07-27T00:41:09.258Z,857.16
2018-07-27T00:42:09.136Z,857.14
2018-07-27T00:43:09.613Z,857.12
2018-07-27T00:44:08.891Z,857.13
2018-07-27T00:45:08.770Z,857.09
2018-07-27T00:46:08.647Z,857.08
2018-07-27T00:47:08.532Z,857.10
2018-07-27T00:48:08.403Z,857.04
2018-07-27T00:49:08.282Z,857.05
2018-07-27T00:50:08.159Z,857.03
2018-07-27T00:51:08.047Z,857.02
2018-07-27T00:52:07.916Z,857.01
2018-07-27T00:53:07.797Z,857.02
2018-07-27T00:54:07.672Z,856.99
2018-07-27T00:55:07.552Z,856.98
2018-07-27T00:56:07.426Z,856.96
2018-07-27T00:57:07.305Z,856.91
2018-07-27T00:58:07.184Z,856.90
2018-07-27T00:59:07.063Z,856.90
2018-07-27T01:00:06.942Z,856.90
2018-07-27T01:01:06.819Z,856.90
2018-07-27T01:02:06.697Z,856.85
2018-07-27T01:03:06.579Z,856.89
2018-07-27T01:04:06.453Z,856.81
2018-07-27T01:05:06.333Z,856.82
2018-07-27T01:06:06.211Z,856.78
2018-07-27T01:07:06.087Z,856.80
2018-07-27T01:08:05.968Z,856.76
2018-07-27T01:09:05.849Z,856.75
2018-07-27T01:10:05.724Z,856.79
2018-07-27T01:11:05.599Z,856.75
2018-07-27T01:12:05.618Z,856.76
2018-07-27T01:13:05.356Z,856.77
2018-07-27T01:14:05.233Z,856.81
2018-07-27T01:15:05.111Z,856.85
2018-07-27T01:16:04.989Z,856.81
2018-07-27T01:17:04.872Z,856.78
2018-07-27T01:18:04.746Z,856.78
2018-07-27T01:19:04.623Z,856.75
2018-07-27T01:20:04.503Z,856.76
2018-07-27T01:21:04.381Z,856.74
2018-07-27T01:22:04.257Z,856.71
2018-07-27T01:23:04.133Z,856.68
2018-07-27T01:24:04.017Z,856.68
2018-07-27T01:25:03.889Z,856.69
2018-07-27T01:26:03.770Z,856.67
2018-07-27T01:27:03.649Z,856.67
2018-07-27T01:28:03.526Z,856.60
2018-07-27T01:29:03.406Z,856.61
2018-07-27T01:30:03.331Z,856.62
2018-07-27T01:31:03.161Z,856.65
2018-07-27T01:32:03.038Z,856.60
2018-07-27T01:33:02.918Z,856.60
2018-07-27T01:34:02.793Z,856.59
2018-07-27T01:35:02.673Z,856.59
2018-07-27T01:36:02.548Z,856.58
2018-07-27T01:37:02.429Z,856.55
2018-07-27T01:38:02.307Z,856.54
2018-07-27T01:39:02.184Z,856.53
2018-07-27T01:40:02.061Z,856.51
2018-07-27T01:41:01.945Z,856.51
2018-07-27T01:42:01.817Z,856.45
2018-07-27T01:43:01.693Z,856.49
2018-07-27T01:44:01.575Z,856.45
2018-07-27T01:45:01.458Z,856.44
2018-07-27T01:46:01.331Z,856.47
2018-07-27T01:47:01.207Z,856.43
2018-07-27T01:48:01.084Z,856.44
2018-07-27T01:49:00.962Z,856.41
2018-07-27T01:50:00.841Z,856.44
2018-07-27T01:51:00.789Z,856.43
2018-07-27T01:52:00.598Z,856.46
2018-07-27T01:53:00.472Z,856.40
2018-07-27T01:54:00.352Z,856.41
2018-07-27T01:55:00.229Z,856.39
2018-07-27T01:56:00.108Z,856.39
2018-07-27T01:56:59.988Z,856.40
2018-07-27T01:57:59.862Z,856.36
2018-07-27T01:58:59.741Z,856.37
2018-07-27T01:59:59.629Z,856.35
2018-07-27T02:00:59.501Z,856.32
2018-07-27T02:01:59.375Z,856.30
2018-07-27T02:02:59.253Z,856.30
2018-07-27T02:03:59.135Z,856.30
2018-07-27T02:04:59.008Z,856.29
2018-07-27T02:05:58.912Z,856.30
2018-07-27T02:06:58.766Z,856.29
2018-07-27T02:07:58.645Z,856.27
2018-07-27T02:08:58.523Z,856.31
2018-07-27T02:09:58.400Z,856.27
2018-07-27T02:10:58.277Z,856.30
2018-07-27T02:11:58.154Z,856.25
2018-07-27T02:12:58.085Z,856.25
2018-07-27T02:13:57.908Z,856.22
2018-07-27T02:14:57.788Z,856.23
2018-07-27T02:15:57.667Z,856.22
2018-07-27T02:16:57.544Z,856.21
2018-07-27T02:17:57.420Z,856.20
2018-07-27T02:18:57.301Z,856.18
2018-07-27T02:19:57.177Z,856.19
2018-07-27T02:20:57.056Z,856.19
2018-07-27T02:21:56.930Z,856.22
2018-07-27T02:22:56.809Z,856.23
2018-07-27T02:23:56.688Z,856.24
2018-07-27T02:24:56.568Z,856.25
2018-07-27T02:25:56.443Z,856.23
2018-07-27T02:26:56.321Z,856.29
2018-07-27T02:27:56.200Z,856.29
2018-07-27T02:28:56.077Z,856.26
2018-07-27T02:29:55.953Z,856.23
2018-07-27T02:30:55.831Z,856.22
2018-07-27T02:31:55.742Z,856.22
2018-07-27T02:32:55.590Z,856.22
2018-07-27T02:33:55.532Z,856.19
2018-07-27T02:34:55.344Z,856.18
2018-07-27T02:35:55.220Z,856.20
2018-07-27T02:36:55.097Z,856.26
2018-07-27T02:37:54.977Z,856.24
2018-07-27T02:38:54.854Z,856.25
2018-07-27T02:39:55.778Z,856.24
2018-07-27T02:40:54.613Z,856.24
2018-07-27T02:41:54.487Z,856.28
2018-07-27T02:42:54.364Z,856.24
2018-07-27T02:43:54.247Z,856.26
2018-07-27T02:44:54.121Z,856.24
2018-07-27T02:45:53.998Z,856.25
2018-07-27T02:46:53.875Z,856.20
2018-07-27T02:47:53.759Z,856.20
2018-07-27T02:48:53.632Z,856.18
2018-07-27T02:49:53.508Z,856.17
2018-07-27T02:50:53.386Z,856.18
2018-07-27T02:51:53.265Z,856.17
2018-07-27T02:52:53.144Z,856.15
2018-07-27T02:53:53.019Z,856.18
2018-07-27T02:54:52.898Z,856.17
2018-07-27T02:55:52.780Z,856.18
2018-07-27T02:56:52.654Z,856.19
2018-07-27T02:57:52.529Z,856.26
2018-07-27T02:58:52.409Z,856.19
2018-07-27T02:59:52.289Z,856.21
2018-07-27T03:00:52.164Z,856.19
2018-07-27T03:01:52.040Z,856.21
2018-07-27T03:02:51.920Z,856.20
2018-07-27T03:03:51.799Z,856.23
2018-07-27T03:04:51.674Z,856.22
2018-07-27T03:05:51.560Z,856.22
2018-07-27T03:06:51.434Z,856.21
2018-07-27T03:07:51.311Z,856.17
2018-07-27T03:08:51.616Z,856.15
2018-07-27T03:09:51.110Z,856.15
2018-07-27T03:10:50.940Z,856.15
2018-07-27T03:11:50.822Z,856.17
2018-07-27T03:12:50.696Z,856.13
2018-07-27T03:13:50.572Z,856.12
2018-07-27T03:14:50.461Z,856.13
2018-07-27T03:15:50.331Z,856.14
2018-07-27T03:16:50.207Z,856.14
2018-07-27T03:17:50.082Z,856.12
2018-07-27T03:18:49.960Z,856.13
2018-07-27T03:19:49.844Z,856.16
2018-07-27T03:20:49.719Z,856.16
2018-07-27T03:21:49.594Z,856.15
2018-07-27T03:22:49.473Z,856.10
2018-07-27T03:23:49.353Z,856.15
2018-07-27T03:24:49.227Z,856.15
2018-07-27T03:25:49.105Z,856.13
2018-07-27T03:26:48.981Z,856.12
2018-07-27T03:27:48.859Z,856.15
2018-07-27T03:28:48.735Z,856.14
2018-07-27T03:29:48.651Z,856.11
2018-07-27T03:30:48.494Z,856.17
2018-07-27T03:31:48.368Z,856.15
2018-07-27T03:32:48.249Z,856.12
2018-07-27T03:33:48.125Z,856.11
2018-07-27T03:34:48.003Z,856.13
2018-07-27T03:35:47.878Z,856.10
2018-07-27T03:36:47.760Z,856.15
2018-07-27T03:37:47.653Z,856.09
2018-07-27T03:38:47.515Z,856.10
2018-07-27T03:39:47.389Z,856.08
2018-07-27T03:40:47.265Z,856.10
2018-07-27T03:41:47.144Z,856.10
2018-07-27T03:42:47.022Z,856.06
2018-07-27T03:43:46.966Z,856.09
2018-07-27T03:44:46.776Z,856.08
2018-07-27T03:45:46.656Z,856.14
2018-07-27T03:46:46.532Z,856.10
2018-07-27T03:47:46.419Z,856.11
2018-07-27T03:48:46.287Z,856.11
2018-07-27T03:49:46.167Z,856.14
2018-07-27T03:50:46.042Z,856.13
2018-07-27T03:51:45.922Z,856.10
2018-07-27T03:52:45.798Z,856.13
2018-07-27T03:53:45.676Z,856.12
2018-07-27T03:54:45.551Z,856.16
2018-07-27T03:55:45.430Z,856.17
2018-07-27T03:56:45.308Z,856.14
2018-07-27T03:57:45.186Z,856.14
2018-07-27T03:58:45.061Z,856.14
2018-07-27T03:59:44.941Z,856.11
2018-07-27T04:00:44.820Z,856.14
2018-07-27T04:01:44.698Z,856.16
2018-07-27T04:02:44.574Z,856.16
2018-07-27T04:03:44.448Z,856.13
2018-07-27T04:04:44.328Z,856.14
2018-07-27T04:05:44.205Z,856.17
2018-07-27T04:06:44.086Z,856.16
2018-07-27T04:07:43.964Z,856.19
2018-07-27T04:08:43.842Z,856.21
2018-07-27T04:09:43.719Z,856.22
2018-07-27T04:10:43.597Z,856.21
2018-07-27T04:11:43.468Z,856.20
2018-07-27T04:12:43.350Z,856.25
2018-07-27T04:13:43.223Z,856.27
2018-07-27T04:14:43.101Z,856.22
2018-07-27T04:15:42.977Z,856.22
2018-07-27T04:16:42.856Z,856.23
2018-07-27T04:17:42.733Z,856.21
2018-07-27T04:18:42.611Z,856.22
2018-07-27T04:19:42.489Z,856.21
2018-07-27T04:20:42.366Z,856.25
2018-07-27T04:21:42.243Z,856.21
2018-07-27T04:22:42.122Z,856.19
2018-07-27T04:23:42.000Z,856.19
2018-07-27T04:24:41.883Z,856.20
2018-07-27T04:25:41.765Z,856.17
2018-07-27T04:26:41.657Z,856.15
2018-07-27T04:27:41.515Z,856.15
2018-07-27T04:28:41.389Z,856.16
2018-07-27T04:29:41.264Z,856.20
2018-07-27T04:30:41.145Z,856.18
2018-07-27T04:31:41.025Z,856.17
2018-07-27T04:32:40.901Z,856.18
2018-07-27T04:33:40.779Z,856.21
2018-07-27T04:34:40.656Z,856.20
2018-07-27T04:35:40.586Z,856.21
2018-07-27T04:36:40.408Z,856.22
2018-07-27T04:37:40.287Z,856.23
2018-07-27T04:38:40.165Z,856.19
2018-07-27T04:39:40.044Z,856.23
2018-07-27T04:40:39.920Z,856.23
2018-07-27T04:41:39.799Z,856.23
2018-07-27T04:42:39.675Z,856.23
2018-07-27T04:43:39.554Z,856.24
2018-07-27T04:44:39.431Z,856.22
2018-07-27T04:45:39.309Z,856.23
2018-07-27T04:46:39.186Z,856.24
2018-07-27T04:47:39.066Z,856.24
2018-07-27T04:48:38.940Z,856.21
2018-07-27T04:49:38.817Z,856.21
2018-07-27T04:50:38.696Z,856.18
2018-07-27T04:51:38.574Z,856.15
2018-07-27T04:52:38.451Z,856.17
2018-07-27T04:53:38.328Z,856.16
2018-07-27T04:54:38.208Z,856.17
2018-07-27T04:55:38.086Z,856.15
2018-07-27T04:56:38.045Z,856.16
2018-07-27T04:57:37.842Z,856.17
2018-07-27T04:58:37.719Z,856.12
2018-07-27T04:59:37.596Z,856.14
2018-07-27T05:00:37.473Z,856.13
2018-07-27T05:01:37.350Z,856.16
2018-07-27T05:02:37.234Z,856.17
2018-07-27T05:03:37.108Z,856.17
2018-07-27T05:04:36.995Z,856.16
2018-07-27T05:05:37.672Z,856.18
2018-07-27T05:06:36.748Z,856.16
2018-07-27T05:07:36.623Z,856.20
2018-07-27T05:08:36.498Z,856.20
2018-07-27T05:09:36.380Z,856.19
2018-07-27T05:10:36.260Z,856.24
2018-07-27T05:11:36.134Z,856.26
2018-07-27T05:12:36.011Z,856.27
2018-07-27T05:13:35.891Z,856.27
2018-07-27T05:14:35.772Z,856.25
2018-07-27T05:15:35.648Z,856.26
2018-07-27T05:16:35.523Z,856.24
2018-07-27T05:17:35.401Z,856.22
2018-07-27T05:18:35.280Z,856.25
2018-07-27T05:19:35.161Z,856.25
2018-07-27T05:20:35.040Z,856.21
2018-07-27T05:21:34.917Z,856.18
2018-07-27T05:22:34.794Z,856.16
2018-07-27T05:23:34.673Z,856.19
2018-07-27T05:24:34.611Z,856.19
2018-07-27T05:25:34.432Z,856.21
2018-07-27T05:26:34.308Z,856.19
2018-07-27T05:27:34.229Z,856.23
2018-07-27T05:28:34.071Z,856.19
2018-07-27T05:29:33.953Z,856.21
2018-07-27T05:30:33.835Z,856.17
2018-07-27T05:31:33.717Z,856.19
2018-07-27T05:32:33.624Z,856.18
2018-07-27T05:33:33.494Z,856.18
2018-07-27T05:34:33.733Z,856.17
2018-07-27T05:35:33.217Z,856.17
2018-07-27T05:36:33.100Z,856.19
2018-07-27T05:37:32.974Z,856.17
2018-07-27T05:38:32.853Z,856.17
2018-07-27T05:39:32.733Z,856.19
2018-07-27T05:40:32.614Z,856.21
2018-07-27T05:41:32.494Z,856.17
2018-07-27T05:42:32.370Z,856.20
2018-07-27T05:43:32.248Z,856.19
2018-07-27T05:44:32.127Z,856.18
2018-07-27T05:45:32.008Z,856.20
2018-07-27T05:46:31.886Z,856.23
2018-07-27T05:47:31.768Z,856.17
2018-07-27T05:48:31.668Z,856.18
2018-07-27T05:49:31.533Z,856.20
2018-07-27T05:50:31.402Z,856.21
2018-07-27T05:51:31.284Z,856.19
2018-07-27T05:52:31.164Z,856.16
2018-07-27T05:53:31.044Z,856.20
2018-07-27T05:54:30.926Z,856.17
2018-07-27T05:55:30.801Z,856.18
2018-07-27T05:56:30.682Z,856.16
2018-07-27T05:57:30.558Z,856.18
2018-07-27T05:58:30.443Z,856.18
2018-07-27T05:59:30.358Z,856.15
2018-07-27T06:00:30.197Z,856.12
2018-07-27T06:01:30.079Z,856.12
2018-07-27T06:02:29.955Z,856.09
2018-07-27T06:03:29.839Z,856.11
2018-07-27T06:04:29.718Z,856.09
2018-07-27T06:05:29.594Z,856.13
2018-07-27T06:06:29.473Z,856.14
2018-07-27T06:07:29.353Z,856.15
2018-07-27T06:08:29.238Z,856.11
2018-07-27T06:09:29.114Z,856.16
2018-07-27T06:10:28.992Z,856.16
2018-07-27T06:11:28.873Z,856.16
2018-07-27T06:12:28.753Z,856.15
2018-07-27T06:13:28.633Z,856.19
2018-07-27T06:14:28.519Z,856.13
2018-07-27T06:15:28.392Z,856.13
2018-07-27T06:16:28.276Z,856.14
2018-07-27T06:17:28.154Z,856.16
2018-07-27T06:18:28.033Z,856.16
2018-07-27T06:19:27.919Z,856.16
2018-07-27T06:20:27.792Z,856.13
2018-07-27T06:21:27.672Z,856.15
2018-07-27T06:22:27.552Z,856.24
2018-07-27T06:23:27.466Z,856.23
2018-07-27T06:24:27.361Z,856.25
2018-07-27T06:25:27.200Z,856.30
2018-07-27T06:26:27.073Z,856.26
2018-07-27T06:27:26.958Z,856.29
2018-07-27T06:28:26.839Z,856.34
2018-07-27T06:29:26.714Z,856.32
2018-07-27T06:30:26.601Z,856.31
2018-07-27T06:31:26.478Z,856.31
2018-07-27T06:32:26.361Z,856.28
2018-07-27T06:33:26.235Z,856.29
2018-07-27T06:34:26.118Z,856.30
2018-07-27T06:35:25.994Z,856.29
2018-07-27T06:36:25.874Z,856.30
2018-07-27T06:37:25.781Z,856.30
2018-07-27T06:38:25.639Z,856.30
2018-07-27T06:39:25.523Z,856.29
2018-07-27T06:40:25.396Z,856.30
2018-07-27T06:41:25.283Z,856.35
2018-07-27T06:42:25.159Z,856.35
2018-07-27T06:43:25.038Z,856.34
2018-07-27T06:44:24.924Z,856.35
2018-07-27T06:45:24.797Z,856.35
2018-07-27T06:46:24.679Z,856.40
2018-07-27T06:47:24.560Z,856.41
2018-07-27T06:48:24.439Z,856.41
2018-07-27T06:49:24.342Z,856.45
2018-07-27T06:50:24.201Z,856.40
2018-07-27T06:51:24.083Z,856.42
2018-07-27T06:52:23.968Z,856.44
2018-07-27T06:53:23.849Z,856.42
2018-07-27T06:54:23.724Z,856.40
2018-07-27T06:55:23.604Z,856.41
2018-07-27T06:56:23.493Z,856.41
2018-07-27T06:57:23.365Z,856.41
2018-07-27T06:58:23.248Z,856.38
2018-07-27T06:59:23.130Z,856.38
2018-07-27T07:00:23.008Z,856.39
2018-07-27T07:01:22.894Z,856.40
2018-07-27T07:02:23.704Z,856.35
2018-07-27T07:03:22.691Z,856.37
2018-07-27T07:04:22.535Z,856.38
2018-07-27T07:05:22.415Z,856.37
2018-07-27T07:06:22.297Z,856.34
2018-07-27T07:07:22.274Z,856.34
2018-07-27T07:08:22.056Z,856.36
2018-07-27T07:09:21.938Z,856.31
2018-07-27T07:10:21.820Z,856.35
2018-07-27T07:11:21.701Z,856.34
2018-07-27T07:12:21.584Z,856.35
2018-07-27T07:13:21.465Z,856.34
2018-07-27T07:14:21.397Z,856.33
2018-07-27T07:15:21.224Z,856.34
2018-07-27T07:16:21.107Z,856.33
2018-07-27T07:17:20.992Z,856.32
2018-07-27T07:18:20.871Z,856.32
2018-07-27T07:19:20.753Z,856.28
2018-07-27T07:20:20.634Z,856.24
2018-07-27T07:21:20.515Z,856.27
2018-07-27T07:22:20.400Z,856.26
2018-07-27T07:23:20.278Z,856.27
2018-07-27T07:24:20.162Z,856.28
2018-07-27T07:25:20.148Z,856.25
2018-07-27T07:26:19.921Z,856.26
2018-07-27T07:27:19.802Z,856.23
2018-07-27T07:28:19.684Z,856.23
2018-07-27T07:29:19.579Z,856.23
2018-07-27T07:30:19.449Z,856.24
2018-07-27T07:31:19.708Z,856.20
2018-07-27T07:32:19.224Z,856.24
2018-07-27T07:33:19.102Z,856.21
2018-07-27T07:34:18.975Z,856.20
2018-07-27T07:35:18.856Z,856.19
2018-07-27T07:36:18.738Z,856.22
2018-07-27T07:37:18.617Z,856.16
2018-07-27T07:38:18.501Z,856.19
2018-07-27T07:39:18.383Z,856.14
2018-07-27T07:40:18.287Z,856.20
2018-07-27T07:41:18.148Z,856.17
2018-07-27T07:42:18.031Z,856.14
2018-07-27T07:43:17.912Z,856.18
2018-07-27T07:44:17.824Z,856.15
2018-07-27T07:45:17.674Z,856.15
2018-07-27T07:46:17.557Z,856.14
2018-07-27T07:47:17.439Z,856.11
2018-07-27T07:48:17.530Z,856.14
2018-07-27T07:49:17.282Z,856.11
2018-07-27T07:50:17.084Z,856.08
2018-07-27T07:51:16.968Z,856.02
2018-07-27T07:52:16.851Z,856.03
2018-07-27T07:53:16.734Z,856.05
2018-07-27T07:54:16.612Z,856.06
2018-07-27T07:55:16.497Z,856.08
2018-07-27T07:56:16.379Z,856.05
2018-07-27T07:57:16.260Z,856.07
2018-07-27T07:58:16.143Z,856.06
2018-07-27T07:59:16.031Z,856.02
2018-07-27T08:00:15.911Z,856.02
2018-07-27T08:01:15.790Z,856.00
2018-07-27T08:02:15.673Z,856.02
2018-07-27T08:03:15.558Z,855.99
2018-07-27T08:04:15.459Z,856.01
2018-07-27T08:05:15.320Z,856.00
2018-07-27T08:06:15.207Z,856.02
2018-07-27T08:07:15.088Z,856.00
2018-07-27T08:08:14.969Z,856.00
2018-07-27T08:09:14.856Z,855.93
2018-07-27T08:10:14.733Z,855.94
2018-07-27T08:11:14.650Z,855.94
2018-07-27T08:12:14.500Z,855.94
2018-07-27T08:13:14.384Z,855.92
2018-07-27T08:14:14.267Z,855.91
2018-07-27T08:15:14.404Z,855.97
2018-07-27T08:16:14.041Z,855.94
2018-07-27T08:17:13.920Z,855.91
2018-07-27T08:18:13.796Z,855.90
2018-07-27T08:19:14.318Z,855.85
2018-07-27T08:20:13.567Z,855.86
2018-07-27T08:21:13.446Z,855.87
2018-07-27T08:22:13.327Z,855.89
2018-07-27T08:23:13.210Z,855.87
2018-07-27T08:24:14.213Z,855.82
2018-07-27T08:25:15.637Z,855.81
2018-07-27T08:26:12.867Z,855.79
2018-07-27T08:27:12.746Z,855.79
2018-07-27T08:28:12.629Z,855.72
2018-07-27T08:29:12.513Z,855.80
2018-07-27T08:30:12.412Z,855.80
2018-07-27T08:31:12.279Z,855.74
2018-07-27T08:32:12.160Z,855.76
2018-07-27T08:33:12.044Z,855.79
2018-07-27T08:34:11.924Z,855.77
2018-07-27T08:35:11.808Z,855.77
2018-07-27T08:36:11.698Z,855.76
2018-07-27T08:37:11.573Z,855.72
2018-07-27T08:38:11.460Z,855.73
2018-07-27T08:39:11.341Z,855.74
2018-07-27T08:40:11.229Z,855.75
2018-07-27T08:41:11.110Z,855.70
2018-07-27T08:42:10.992Z,855.71
2018-07-27T08:43:10.883Z,855.69
2018-07-27T08:44:10.760Z,855.71
2018-07-27T08:45:10.643Z,855.71
2018-07-27T08:46:10.526Z,855.67
2018-07-27T08:47:10.426Z,855.70
2018-07-27T08:48:10.293Z,855.66
2018-07-27T08:49:10.179Z,855.68
2018-07-27T08:50:10.063Z,855.68
2018-07-27T08:51:09.943Z,855.66
2018-07-27T08:52:09.827Z,855.65
2018-07-27T08:53:09.710Z,855.72
2018-07-27T08:54:09.599Z,855.69
2018-07-27T08:55:09.481Z,855.69
2018-07-27T08:56:09.361Z,855.68
2018-07-27T08:57:09.246Z,855.67
2018-07-27T08:58:09.131Z,855.65
2018-07-27T08:59:09.730Z,855.64
2018-07-27T09:00:08.899Z,855.68
2018-07-27T09:01:08.782Z,855.62
2018-07-27T09:02:08.664Z,855.62
2018-07-27T09:03:08.549Z,855.60
2018-07-27T09:04:08.433Z,855.62
2018-07-27T09:05:08.320Z,855.62
2018-07-27T09:06:08.207Z,855.58
2018-07-27T09:07:08.086Z,855.57
2018-07-27T09:08:07.975Z,855.55
2018-07-27T09:09:07.853Z,855.55
2018-07-27T09:10:07.742Z,855.57
2018-07-27T09:11:07.629Z,855.54
2018-07-27T09:12:07.509Z,855.53
2018-07-27T09:13:07.391Z,855.54
2018-07-27T09:14:07.276Z,855.55
2018-07-27T09:15:07.162Z,855.53
2018-07-27T09:16:07.045Z,855.53
2018-07-27T09:17:06.928Z,855.52
2018-07-27T09:18:06.816Z,855.53
2018-07-27T09:19:06.698Z,855.52
2018-07-27T09:20:06.582Z,855.50
2018-07-27T09:21:06.467Z,855.49
2018-07-27T09:22:06.351Z,855.50
2018-07-27T09:23:06.235Z,855.50
2018-07-27T09:24:06.120Z,855.47
2018-07-27T09:25:06.215Z,855.49
2018-07-27T09:26:05.887Z,855.45
2018-07-27T09:27:05.779Z,855.46
2018-07-27T09:28:05.748Z,855.46
2018-07-27T09:29:05.815Z,855.47
2018-07-27T09:30:06.213Z,855.46
2018-07-27T09:31:05.310Z,855.49
2018-07-27T09:32:05.201Z,855.42
2018-07-27T09:33:05.078Z,855.43
2018-07-27T09:34:04.968Z,855.40
2018-07-27T09:35:04.855Z,855.39
2018-07-27T09:36:04.733Z,855.37
2018-07-27T09:37:04.615Z,855.38
2018-07-27T09:38:04.498Z,855.37
2018-07-27T09:39:04.381Z,855.37
2018-07-27T09:40:04.368Z,855.38
2018-07-27T09:41:04.155Z,855.36
2018-07-27T09:42:04.036Z,855.33
2018-07-27T09:43:03.935Z,855.30
2018-07-27T09:44:03.805Z,855.31
2018-07-27T09:45:03.691Z,855.33
2018-07-27T09:46:03.585Z,855.31
2018-07-27T09:47:03.460Z,855.32
2018-07-27T09:48:03.345Z,855.30
2018-07-27T09:49:03.228Z,855.28
2018-07-27T09:50:03.304Z,855.28
2018-07-27T09:51:02.995Z,855.26
2018-07-27T09:52:02.898Z,855.28
2018-07-27T09:53:02.768Z,855.27
2018-07-27T09:54:02.653Z,855.27
2018-07-27T09:55:02.535Z,855.25
2018-07-27T09:56:02.421Z,855.25
2018-07-27T09:57:02.308Z,855.28
2018-07-27T09:58:02.193Z,855.27
2018-07-27T09:59:02.076Z,855.25
2018-07-27T10:00:04.462Z,855.27
2018-07-27T10:01:01.847Z,855.25
2018-07-27T10:02:01.731Z,855.20
2018-07-27T10:03:01.615Z,855.22
2018-07-27T10:04:03.166Z,855.25
2018-07-27T10:05:01.385Z,855.23
2018-07-27T10:06:01.272Z,855.24
2018-07-27T10:07:01.155Z,855.24
2018-07-27T10:08:01.043Z,855.23
2018-07-27T10:09:00.925Z,855.21
2018-07-27T10:10:00.809Z,855.24
2018-07-27T10:11:00.692Z,855.23
2018-07-27T10:12:00.698Z,855.20
2018-07-27T10:13:00.464Z,855.20
2018-07-27T10:14:02.169Z,855.20
2018-07-27T10:15:00.237Z,855.21
2018-07-27T10:16:00.121Z,855.24
2018-07-27T10:17:00.009Z,855.23
2018-07-27T10:17:59.889Z,855.27
2018-07-27T10:18:59.775Z,855.26
2018-07-27T10:19:59.664Z,855.19
2018-07-27T10:20:59.547Z,855.19
2018-07-27T10:21:59.435Z,855.16
2018-07-27T10:22:59.320Z,855.23
2018-07-27T10:23:59.207Z,855.23
2018-07-27T10:24:59.090Z,855.18
2018-07-27T10:25:58.978Z,855.22
2018-07-27T10:26:59.791Z,855.19
2018-07-27T10:27:58.752Z,855.17
2018-07-27T10:28:58.637Z,855.17
2018-07-27T10:29:58.522Z,855.12
2018-07-27T10:30:58.411Z,855.18
2018-07-27T10:31:58.325Z,855.22
2018-07-27T10:32:58.180Z,855.18
2018-07-27T10:33:58.072Z,855.22
2018-07-27T10:34:57.954Z,855.21
2018-07-27T10:35:57.841Z,855.18
2018-07-27T10:36:57.726Z,855.15
2018-07-27T10:37:57.612Z,855.15
2018-07-27T10:38:57.500Z,855.17
2018-07-27T10:39:57.387Z,855.13
2018-07-27T10:40:57.278Z,855.12
2018-07-27T10:41:57.157Z,855.12
2018-07-27T10:42:57.040Z,855.13
2018-07-27T10:43:56.929Z,855.11
2018-07-27T10:44:56.902Z,855.10
2018-07-27T10:45:56.697Z,855.14
2018-07-27T10:46:56.590Z,855.05
2018-07-27T10:47:56.472Z,855.11
2018-07-27T10:48:56.359Z,855.07
2018-07-27T10:49:56.242Z,855.13
2018-07-27T10:50:56.131Z,855.04
2018-07-27T10:51:56.019Z,855.09
2018-07-27T10:52:55.901Z,855.14
2018-07-27T10:53:55.910Z,855.15
2018-07-27T10:54:55.677Z,855.13
2018-07-27T10:55:56.048Z,855.08
2018-07-27T10:56:55.452Z,855.08
2018-07-27T10:57:55.385Z,855.09
2018-07-27T10:58:55.225Z,855.06
2018-07-27T10:59:55.111Z,855.11
2018-07-27T11:00:54.998Z,855.06
2018-07-27T11:01:54.887Z,855.06
2018-07-27T11:02:54.772Z,855.06
2018-07-27T11:03:54.661Z,855.02
2018-07-27T11:04:54.548Z,855.06
2018-07-27T11:05:54.436Z,855.04
2018-07-27T11:06:54.385Z,855.04
2018-07-27T11:07:54.214Z,855.02
2018-07-27T11:08:54.163Z,854.97
2018-07-27T11:09:54.068Z,854.97
2018-07-27T11:10:53.876Z,854.91
2018-07-27T11:11:53.762Z,854.92
2018-07-27T11:12:53.652Z,854.90
2018-07-27T11:13:55.129Z,854.87
2018-07-27T11:14:53.439Z,854.91
2018-07-27T11:15:53.317Z,854.91
2018-07-27T11:16:53.204Z,854.91
2018-07-27T11:17:53.170Z,854.94
2018-07-27T11:18:52.982Z,854.91
2018-07-27T11:19:52.870Z,854.92
2018-07-27T11:20:52.871Z,854.92
2018-07-27T11:21:52.757Z,854.91
2018-07-27T11:22:52.537Z,854.94
2018-07-27T11:23:52.428Z,854.99
2018-07-27T11:24:52.315Z,854.89
2018-07-27T11:25:52.203Z,854.83
2018-07-27T11:26:52.094Z,854.86
2018-07-27T11:27:51.981Z,854.88
2018-07-27T11:28:51.869Z,854.86
2018-07-27T11:29:51.760Z,854.82
2018-07-27T11:30:51.667Z,854.80
2018-07-27T11:31:51.536Z,854.82
2018-07-27T11:32:51.424Z,854.82
2018-07-27T11:33:51.316Z,854.78
2018-07-27T11:34:51.207Z,854.77
2018-07-27T11:35:51.094Z,854.80
2018-07-27T11:36:50.981Z,854.77
2018-07-27T11:37:50.884Z,854.76
2018-07-27T11:38:50.764Z,854.76
2018-07-27T11:39:50.653Z,854.80
2018-07-27T11:40:50.547Z,854.82
2018-07-27T11:41:50.432Z,854.78
2018-07-27T11:42:50.319Z,854.76
2018-07-27T11:43:51.204Z,854.78
2018-07-27T11:44:50.099Z,854.77
2018-07-27T11:45:49.989Z,854.73
2018-07-27T11:46:49.881Z,854.69
2018-07-27T11:47:49.770Z,854.67
2018-07-27T11:48:49.662Z,854.68
2018-07-27T11:49:49.550Z,854.70
2018-07-27T11:50:49.440Z,854.68
2018-07-27T11:51:49.332Z,854.71
2018-07-27T11:52:49.228Z,854.70
2018-07-27T11:53:49.111Z,854.69
2018-07-27T11:54:49.843Z,854.70
2018-07-27T11:55:48.893Z,854.69
2018-07-27T11:56:48.783Z,854.68
2018-07-27T11:57:48.674Z,854.71
2018-07-27T11:58:48.569Z,854.70
2018-07-27T11:59:48.458Z,854.72
2018-07-27T12:00:48.346Z,854.70
2018-07-27T12:01:50.207Z,854.74
2018-07-27T12:02:48.129Z,854.75
2018-07-27T12:03:48.019Z,854.73
2018-07-27T12:04:47.909Z,854.68
2018-07-27T12:05:47.803Z,854.69
2018-07-27T12:06:47.694Z,854.65
2018-07-27T12:07:47.585Z,854.67
2018-07-27T12:08:47.473Z,854.70
2018-07-27T12:09:47.366Z,854.63
2018-07-27T12:10:47.259Z,854.63
2018-07-27T12:11:47.148Z,854.60
2018-07-27T12:12:47.039Z,854.62
2018-07-27T12:13:46.946Z,854.62
2018-07-27T12:14:46.970Z,854.60
2018-07-27T12:15:46.714Z,854.63
2018-07-27T12:16:46.606Z,854.58
2018-07-27T12:17:46.496Z,854.60
2018-07-27T12:18:46.391Z,854.64
2018-07-27T12:19:46.282Z,854.53
2018-07-27T12:20:46.348Z,854.62
2018-07-27T12:21:46.276Z,854.62
2018-07-27T12:22:45.966Z,854.56
2018-07-27T12:23:45.845Z,854.64
2018-07-27T12:24:45.736Z,854.65
2018-07-27T12:25:45.631Z,854.61
2018-07-27T12:26:45.518Z,854.62